Time;durP1;ratioP1;P1;durP2;ratioP2;P2;SDS_P1;SDS_P2;PMS_P1;PMS_P2;Temp;Humidity;BMP_temperature;BMP_pressure;BME280_temperature;BME280_humidity;BME280_pressure;Samples;Min_cycle;Max_cycle;Signal;HPM_P1;HPM_P2
2021/08/03 05:16:57;;;;;;;13.88;9.07;;;12.40;99.90;;;13.86;98.83;100362.34;6304977;22;20015;-90
2021/08/03 05:19:23;;;;;;;16.23;10.88;;;12.50;99.90;;;13.90;98.99;100363.97;6286126;22;20106;-87
2021/08/03 05:21:49;;;;;;;15.50;9.70;;;12.50;99.90;;;13.94;99.18;100361.19;6257051;22;20083;-89
2021/08/03 05:24:15;;;;;;;11.73;8.18;;;12.60;99.90;;;13.99;99.48;100360.84;6252776;23;20011;-88
2021/08/03 05:26:42;;;;;;;17.77;8.43;;;12.60;99.90;;;14.06;99.53;100364.50;6274681;22;20054;-88
2021/08/03 05:29:09;;;;;;;12.82;9.88;;;12.70;99.90;;;14.12;99.77;100359.34;6273522;22;20005;-90
2021/08/03 05:31:35;;;;;;;9.70;7.68;;;12.70;99.90;;;14.17;99.44;100345.75;6251490;23;20013;-90
2021/08/03 05:34:03;;;;;;;15.32;8.80;;;12.80;99.90;;;14.22;99.69;100353.78;6255544;23;20000;-89
2021/08/03 05:36:29;;;;;;;12.90;8.23;;;12.80;99.90;;;14.31;99.83;100352.66;6263934;23;20031;-88
2021/08/03 05:38:54;;;;;;;11.88;8.93;;;12.80;99.90;;;14.36;99.95;100357.94;6256094;23;20135;-90
2021/08/03 05:41:20;;;;;;;12.23;7.88;;;12.90;99.90;;;14.40;99.60;100355.97;6250944;23;20089;-90
2021/08/03 05:43:46;;;;;;;7.38;6.43;;;13.00;99.90;;;14.49;99.87;100356.44;6251174;23;20031;-87
2021/08/03 05:46:12;;;;;;;12.68;8.05;;;13.10;99.90;;;14.54;99.82;100347.66;6250474;23;20034;-89
2021/08/03 05:48:38;;;;;;;11.93;8.02;;;13.20;99.90;;;14.61;99.78;100344.84;6249590;23;20081;-89
2021/08/03 05:51:04;;;;;;;11.95;7.65;;;13.20;99.90;;;14.70;99.45;100345.34;6250132;23;20019;-89
2021/08/03 05:53:29;;;;;;;8.88;6.78;;;13.20;99.90;;;14.77;99.48;100343.34;6251997;23;20004;-89
2021/08/03 05:55:56;;;;;;;12.98;7.70;;;13.30;99.90;;;14.86;98.92;100345.00;6252903;23;20019;-90
2021/08/03 05:58:25;;;;;;;10.18;6.93;;;13.40;99.90;;;14.95;98.68;100345.44;6252052;23;20446;-90
2021/08/03 06:00:51;;;;;;;22.15;10.10;;;13.50;99.90;;;15.06;98.57;100338.66;6250735;23;20009;-90
2021/08/03 06:03:17;;;;;;;12.68;8.88;;;13.60;99.90;;;15.20;98.67;100335.09;6250976;22;20016;-89
2021/08/03 06:05:43;;;;;;;10.80;7.40;;;13.70;99.90;;;15.31;98.05;100339.53;6253562;22;20019;-90
2021/08/03 06:08:13;;;;;;;11.45;8.35;;;13.80;99.90;;;15.47;97.38;100341.22;6248650;23;20012;-89
2021/08/03 06:10:44;;;;;;;13.18;8.68;;;13.90;99.90;;;15.72;97.04;100336.44;6250219;23;20008;-88
2021/08/03 06:13:13;;;;;;;12.60;7.85;;;14.10;99.90;;;15.93;95.89;100339.28;6258289;23;20088;-89
2021/08/03 06:15:45;;;;;;;10.98;8.02;;;14.30;99.90;;;16.14;94.99;100338.47;6257467;23;20019;-89
2021/08/03 06:18:36;;;;;;;12.68;7.82;;;14.50;99.90;;;16.39;94.30;100338.44;6248686;23;20091;-87
2021/08/03 06:21:03;;;;;;;11.07;6.88;;;14.70;99.90;;;16.64;93.36;100339.22;6246972;23;20012;-88
2021/08/03 06:23:29;;;;;;;10.68;7.53;;;14.90;99.90;;;16.94;92.90;100331.09;6246456;23;20031;-88
2021/08/03 06:25:58;;;;;;;16.45;7.72;;;15.20;99.90;;;17.21;91.37;100328.56;6246929;23;20036;-90
2021/08/03 06:28:25;;;;;;;14.07;8.13;;;15.40;99.90;;;17.45;90.25;100332.44;6250505;23;20377;-89
2021/08/03 06:30:54;;;;;;;12.88;7.80;;;15.70;99.90;;;17.59;89.46;100338.84;6252429;23;20008;-89
2021/08/03 06:33:23;;;;;;;11.88;6.90;;;15.80;99.90;;;17.65;89.20;100337.19;6251412;23;20015;-89
2021/08/03 06:35:51;;;;;;;9.23;6.18;;;15.90;99.90;;;17.66;88.97;100332.38;6253586;23;20039;-90
2021/08/03 06:38:23;;;;;;;9.13;5.28;;;15.90;99.90;;;17.74;88.33;100333.91;6256651;23;20004;-89
2021/08/03 06:41:24;;;;;;;9.75;5.72;;;16.00;99.90;;;17.80;87.87;100320.94;6256224;23;20040;-89
2021/08/03 06:44:15;;;;;;;11.32;6.10;;;16.10;99.90;;;17.92;85.80;100326.91;6254851;23;20461;-88
2021/08/03 06:46:55;;;;;;;11.40;5.55;;;16.20;99.90;;;17.88;78.95;100320.47;6254414;23;20035;-87
2021/08/03 06:49:23;;;;;;;7.72;3.85;;;16.30;99.90;;;17.86;78.71;100325.75;6255036;23;20015;-89
2021/08/03 06:51:56;;;;;;;9.13;4.32;;;16.30;99.90;;;17.90;78.85;100323.69;6257130;23;20043;-88
2021/08/03 06:54:29;;;;;;;6.57;4.20;;;16.30;99.90;;;17.96;78.12;100326.06;6255059;23;20008;-90
2021/08/03 06:57:09;;;;;;;7.38;3.80;;;16.30;99.90;;;17.90;77.73;100331.38;6255555;23;20034;-88
2021/08/03 06:59:49;;;;;;;7.47;4.07;;;16.30;99.90;;;17.71;76.48;100332.72;6255625;23;20008;-88
2021/08/03 07:02:53;;;;;;;7.30;4.03;;;16.20;99.90;;;17.57;78.06;100329.97;6255384;23;20004;-88
2021/08/03 07:05:32;;;;;;;9.88;4.57;;;16.00;99.90;;;17.51;81.00;100334.44;6107636;23;20010;-89
2021/08/03 07:08:00;;;;;;;11.73;4.38;;;16.00;99.90;;;17.41;82.44;100335.28;6239014;23;20012;-90
2021/08/03 07:10:29;;;;;;;13.02;4.60;;;15.90;99.90;;;17.29;81.13;100333.75;6254953;23;20008;-88
2021/08/03 07:12:55;;;;;;;7.95;4.63;;;15.80;99.90;;;17.05;80.32;100345.94;6259679;23;20028;-90
2021/08/03 07:15:27;;;;;;;6.95;4.18;;;15.70;99.90;;;16.96;79.38;100337.13;6255736;23;20035;-90
2021/08/03 07:17:55;;;;;;;8.65;4.72;;;15.60;99.90;;;16.80;82.58;100331.13;6254078;23;20008;-89
2021/08/03 07:20:24;;;;;;;8.40;5.13;;;15.50;99.90;;;16.91;84.06;100337.56;6252704;23;20004;-89
2021/08/03 07:22:51;;;;;;;8.48;5.60;;;15.50;99.90;;;16.85;84.53;100334.34;6278000;22;20004;-89
2021/08/03 07:25:18;;;;;;;10.38;5.05;;;15.40;99.90;;;16.92;84.78;100329.91;6252531;23;20036;-88
2021/08/03 07:27:50;;;;;;;10.55;5.00;;;15.40;99.90;;;17.01;85.48;100341.53;6261526;22;20004;-89
2021/08/03 07:30:16;;;;;;;11.07;5.15;;;15.40;99.90;;;17.08;85.09;100338.69;6283538;22;20030;-88
2021/08/03 07:32:47;;;;;;;10.73;5.70;;;15.50;99.90;;;17.15;84.38;100339.44;6252268;23;20008;-88
2021/08/03 07:35:13;;;;;;;10.00;6.00;;;15.60;99.90;;;17.11;81.53;100327.41;6274457;22;20011;-91
2021/08/03 07:37:39;;;;;;;8.68;5.07;;;15.60;99.90;;;17.27;81.17;100338.19;6251848;22;20056;-90
2021/08/03 07:40:12;;;;;;;7.70;4.43;;;15.70;99.90;;;17.46;81.14;100337.69;6250952;23;19995;-90
2021/08/03 07:42:38;;;;;;;8.18;4.95;;;15.80;99.90;;;17.58;81.12;100336.44;6251557;22;20460;-89
2021/08/03 07:45:05;;;;;;;8.13;5.05;;;15.90;99.90;;;17.50;80.69;100332.03;6252107;23;20091;-88
2021/08/03 07:47:33;;;;;;;7.95;4.78;;;15.90;99.90;;;17.53;80.02;100329.16;6251410;23;20016;-87
2021/08/03 07:49:59;;;;;;;6.65;4.10;;;16.00;99.90;;;17.63;79.53;100328.31;6253142;23;20073;-88
2021/08/03 07:52:26;;;;;;;5.93;4.10;;;16.10;99.90;;;17.71;78.33;100332.72;6251759;23;20104;-89
2021/08/03 07:54:54;;;;;;;8.35;4.20;;;16.20;99.90;;;17.85;77.94;100324.13;6251466;23;20429;-87
2021/08/03 07:57:23;;;;;;;6.45;3.85;;;16.30;99.90;;;18.01;78.10;100325.63;6252779;23;20012;-89
2021/08/03 07:59:51;;;;;;;7.40;4.45;;;16.30;99.90;;;18.00;74.69;100329.66;6249297;23;20073;-88
2021/08/03 08:02:16;;;;;;;7.80;4.10;;;16.40;99.90;;;17.95;76.00;100330.13;6252022;23;20022;-90
2021/08/03 08:04:42;;;;;;;9.55;4.22;;;16.40;99.90;;;17.91;76.60;100321.69;6250513;23;20032;-93
2021/08/03 08:07:08;;;;;;;8.80;3.88;;;16.40;99.90;;;17.97;76.63;100327.69;6251831;23;20005;-90
2021/08/03 08:09:34;;;;;;;5.93;3.42;;;16.40;99.90;;;17.91;76.42;100330.16;6252924;23;20426;-90
2021/08/03 08:12:01;;;;;;;8.27;4.03;;;16.40;99.90;;;17.86;74.22;100327.75;6250158;23;20030;-89
2021/08/03 08:14:30;;;;;;;6.35;3.95;;;16.30;99.90;;;17.81;75.94;100333.84;6251010;23;20346;-88
2021/08/03 08:16:57;;;;;;;7.78;4.53;;;16.20;99.90;;;17.79;77.42;100336.28;6251004;23;20055;-89
2021/08/03 08:19:23;;;;;;;6.15;3.47;;;16.30;99.90;;;17.80;77.57;100320.94;6250173;23;20366;-90
2021/08/03 08:21:50;;;;;;;7.82;4.18;;;16.30;99.90;;;17.78;78.81;100331.88;6251312;23;20310;-89
2021/08/03 08:24:16;;;;;;;5.07;3.60;;;16.30;99.90;;;17.81;79.71;100334.66;6226998;23;20324;-88
2021/08/03 08:26:42;;;;;;;5.22;3.35;;;16.30;99.90;;;17.83;80.77;100328.59;6250361;23;20011;-91
2021/08/03 08:29:18;;;;;;;4.15;3.50;;;16.20;99.90;;;17.80;82.51;100335.88;6252191;22;20011;-89
2021/08/03 08:31:45;;;;;;;7.43;4.07;;;16.20;99.90;;;17.76;83.01;100329.44;6271333;22;20039;-86
2021/08/03 08:34:14;;;;;;;10.80;4.20;;;16.20;99.90;;;17.61;81.93;100321.47;6258560;22;20039;-90
2021/08/03 08:36:40;;;;;;;4.85;3.78;;;16.10;99.90;;;17.58;82.37;100327.97;6248152;23;20008;-90
2021/08/03 08:39:07;;;;;;;9.27;4.90;;;16.00;99.90;;;17.57;82.98;100329.97;6248379;23;20042;-87
2021/08/03 08:41:35;;;;;;;8.07;4.50;;;16.00;99.90;;;17.49;81.72;100330.41;6248281;23;20008;-89
2021/08/03 08:44:03;;;;;;;6.88;3.78;;;16.00;99.90;;;17.54;81.83;100318.66;6250538;23;20342;-89
2021/08/03 08:46:38;;;;;;;5.43;3.55;;;16.00;99.90;;;17.57;81.76;100310.22;6248450;22;20090;-86
2021/08/03 08:49:07;;;;;;;10.23;4.75;;;16.00;99.90;;;17.65;81.43;100310.97;6248146;22;20000;-90
2021/08/03 08:51:37;;;;;;;7.78;4.57;;;16.10;99.90;;;17.79;81.27;100308.84;6249304;23;20004;-90
2021/08/03 08:54:04;;;;;;;8.52;4.57;;;16.20;99.90;;;17.99;80.72;100309.09;6248257;23;20008;-87
2021/08/03 08:56:30;;;;;;;8.40;4.45;;;16.30;99.90;;;18.16;80.01;100307.31;6248026;23;20004;-89
2021/08/03 08:58:56;;;;;;;7.85;5.25;;;16.40;99.90;;;18.26;79.99;100301.59;6273494;22;20000;-88
2021/08/03 09:01:22;;;;;;;8.07;4.53;;;16.60;99.90;;;18.21;77.38;100304.84;6273604;22;20190;-91
2021/08/03 09:03:48;;;;;;;8.38;4.18;;;16.60;99.90;;;18.19;76.33;100298.81;6247351;23;20008;-90
2021/08/03 09:06:22;;;;;;;9.10;4.55;;;16.60;99.90;;;18.18;77.08;100290.75;6248590;23;20034;-91
2021/08/03 09:08:50;;;;;;;8.77;5.38;;;16.60;99.90;;;18.15;77.85;100295.22;6249201;23;20426;-89
2021/08/03 09:11:20;;;;;;;10.18;4.82;;;16.60;99.90;;;18.19;76.62;100286.69;6248871;23;20012;-89
2021/08/03 09:14:01;;;;;;;7.38;5.03;;;16.60;99.90;;;18.18;77.48;100297.19;6248169;23;20011;-88
2021/08/03 09:16:48;;;;;;;11.38;4.95;;;16.60;99.90;;;18.24;76.56;100289.88;6273348;22;20004;-90
2021/08/03 09:19:41;;;;;;;10.98;4.65;;;16.80;99.90;;;18.54;73.93;100288.38;6252827;23;20019;-88
2021/08/03 09:22:24;;;;;;;8.93;4.75;;;17.00;99.90;;;19.05;73.39;100295.84;6250895;23;20008;-88
2021/08/03 09:25:09;;;;;;;11.05;4.85;;;17.40;99.90;;;19.70;71.55;100289.69;6255433;23;20015;-89
2021/08/03 09:27:42;;;;;;;7.00;4.78;;;17.90;99.90;;;20.22;69.98;100298.53;6250862;22;20051;-90
2021/08/03 09:30:18;;;;;;;5.25;4.32;;;18.40;99.90;;;20.58;69.10;100293.00;6252759;22;20000;-88
2021/08/03 09:32:48;;;;;;;6.22;4.25;;;18.70;99.90;;;20.71;67.35;100285.44;6248970;23;20008;-89
2021/08/03 09:35:21;;;;;;;6.28;3.53;;;18.90;99.90;;;20.76;67.95;100295.50;6248983;22;20000;-90
2021/08/03 09:37:49;;;;;;;6.70;3.28;;;18.90;99.90;;;20.99;66.75;100303.97;6247208;23;20004;-90
2021/08/03 09:40:34;;;;;;;6.20;4.15;;;19.10;99.90;;;21.14;65.21;100288.25;6249982;22;20027;-87
2021/08/03 09:43:13;;;;;;;9.40;4.65;;;19.30;99.90;;;21.08;63.21;100300.53;6248218;23;20012;-87
2021/08/03 09:45:41;;;;;;;5.95;3.67;;;19.30;99.90;;;21.02;63.81;100298.22;6251158;22;20004;-88
2021/08/03 09:48:18;;;;;;;4.97;3.88;;;19.20;99.90;;;20.85;64.02;100287.22;6251781;23;20004;-89
2021/08/03 09:51:07;;;;;;;6.00;3.67;;;19.10;99.90;;;20.77;63.98;100292.25;6254365;23;20004;-88
2021/08/03 09:53:41;;;;;;;9.20;4.20;;;19.10;99.90;;;20.88;63.87;100287.13;6257146;23;20008;-88
2021/08/03 09:56:16;;;;;;;5.68;3.70;;;19.10;99.90;;;21.12;63.50;100285.06;6259665;23;20000;-90
2021/08/03 09:59:10;;;;;;;6.13;3.97;;;19.30;99.90;;;21.36;62.17;100292.22;6264189;22;20000;-90
2021/08/03 10:01:43;;;;;;;6.32;3.90;;;19.50;99.90;;;21.72;60.70;100291.38;6256674;23;20027;-88
2021/08/03 10:04:13;;;;;;;6.85;3.90;;;19.80;99.90;;;22.29;60.80;100279.38;6272973;22;20015;-88
2021/08/03 10:06:41;;;;;;;5.88;3.53;;;20.30;99.90;;;23.09;57.12;100286.91;6258627;23;20019;-88
2021/08/03 10:09:11;;;;;;;7.50;3.80;;;20.90;99.90;;;23.75;53.11;100286.09;6282021;22;20004;-87
2021/08/03 10:11:37;;;;;;;6.30;3.40;;;21.40;99.90;;;24.31;53.57;100277.69;6261905;23;20014;-88
2021/08/03 10:14:06;;;;;;;4.55;2.90;;;22.00;99.90;;;24.93;52.44;100280.78;6259236;23;20008;-90
2021/08/03 10:16:32;;;;;;;7.70;3.45;;;22.50;99.90;;;25.31;48.76;100274.81;6257463;23;20008;-89
2021/08/03 10:19:04;;;;;;;7.47;3.38;;;23.00;99.90;;;25.50;47.90;100271.63;6257554;23;20004;-91
2021/08/03 10:21:42;;;;;;;7.45;3.13;;;23.30;99.90;;;25.62;49.12;100270.72;6282913;22;20028;-89
2021/08/03 10:24:33;;;;;;;6.65;3.28;;;23.50;99.90;;;25.90;47.71;100265.09;6253510;23;20701;-91
2021/08/03 10:27:09;;;;;;;6.45;3.10;;;23.90;98.80;;;25.59;47.02;100265.16;6256748;23;20043;-89
2021/08/03 10:29:53;;;;;;;7.90;3.40;;;23.70;95.90;;;25.26;47.86;100267.66;6234559;23;20066;-89
2021/08/03 10:32:52;;;;;;;5.97;3.10;;;23.50;97.50;;;25.17;48.29;100268.38;6258886;23;20008;-87
2021/08/03 10:35:46;;;;;;;4.70;2.47;;;23.20;97.00;;;25.06;49.21;100256.59;6255385;23;20035;-87
2021/08/03 10:38:28;;;;;;;8.32;3.03;;;23.00;99.10;;;24.70;49.52;100264.06;6250869;23;20028;-87
2021/08/03 10:41:09;;;;;;;6.28;2.65;;;22.60;99.90;;;24.25;48.29;100265.25;6251604;23;20059;-88
2021/08/03 10:43:35;;;;;;;7.32;3.05;;;22.40;98.00;;;23.76;47.04;100256.31;6250780;23;20012;-90
2021/08/03 10:46:07;;;;;;;4.43;2.83;;;22.00;94.50;;;23.58;50.77;100256.09;6250777;23;20536;-91
2021/08/03 10:48:39;;;;;;;4.72;2.30;;;21.80;99.90;;;23.47;48.80;100256.44;6249299;23;20039;-87
2021/08/03 10:51:34;;;;;;;5.35;2.55;;;21.70;97.90;;;23.09;49.36;100253.53;6250952;23;20460;-89
2021/08/03 10:54:18;;;;;;;5.07;2.72;;;21.40;97.90;;;23.07;49.94;100250.34;6239844;23;20004;-87
2021/08/03 10:56:56;;;;;;;4.60;2.75;;;21.20;99.60;;;22.97;51.60;100253.50;6250864;23;20004;-87
2021/08/03 10:59:34;;;;;;;2.70;1.98;;;21.10;99.90;;;23.11;48.50;100253.09;6251737;22;20024;-87
2021/08/03 11:02:09;;;;;;;3.25;2.00;;;21.10;98.10;;;23.21;47.85;100246.25;6250376;23;20468;-89
2021/08/03 11:04:51;;;;;;;5.85;2.47;;;21.10;97.10;;;23.19;50.09;100251.59;6250475;23;20031;-91
2021/08/03 11:07:36;;;;;;;5.47;3.13;;;21.20;99.90;;;22.86;50.09;100245.25;6253804;23;20008;-89
2021/08/03 11:10:14;;;;;;;4.83;2.90;;;21.10;99.70;;;22.74;50.63;100236.69;6248729;23;20130;-89
2021/08/03 11:12:52;;;;;;;5.13;2.88;;;21.10;99.90;;;22.94;50.26;100240.97;6251510;22;20008;-88
2021/08/03 11:15:23;;;;;;;5.53;2.42;;;21.10;99.90;;;23.08;50.93;100234.84;6250694;23;20032;-89
2021/08/03 23:21:32;;;;;;;9.40;6.70;;;14.10;99.90;;;15.44;98.02;100249.13;6284731;22;20103;-88
2021/08/03 23:23:58;;;;;;;8.82;5.90;;;14.10;99.90;;;15.39;98.41;100249.50;6288270;22;20012;-89
2021/08/03 23:26:24;;;;;;;11.25;7.68;;;14.00;99.90;;;15.34;98.54;100236.66;6279735;22;20011;-87
2021/08/03 23:28:50;;;;;;;10.75;7.13;;;14.00;99.90;;;15.33;98.91;100243.47;6279435;22;20051;-88
2021/08/03 23:31:16;;;;;;;11.00;7.15;;;14.00;99.90;;;15.31;99.22;100251.53;6278049;22;20015;-89
2021/08/03 23:33:42;;;;;;;8.63;6.57;;;14.00;99.90;;;15.27;99.28;100251.53;6278124;22;20015;-87
2021/08/03 23:36:07;;;;;;;6.97;6.28;;;14.00;99.90;;;15.24;99.70;100243.88;6279608;22;20008;-88
2021/08/03 23:38:33;;;;;;;10.27;7.18;;;13.90;99.90;;;15.24;99.69;100245.88;6278047;22;20007;-87
2021/08/03 23:40:59;;;;;;;9.45;7.35;;;13.90;99.90;;;15.21;99.85;100244.69;6279011;22;20018;-89
2021/08/03 23:43:27;;;;;;;16.20;9.40;;;13.90;99.90;;;15.20;100.00;100248.69;6279515;22;20078;-88
2021/08/03 23:45:55;;;;;;;10.00;8.52;;;13.80;99.90;;;15.19;100.00;100258.31;6288351;22;20055;-88
2021/08/03 23:48:21;;;;;;;10.07;8.30;;;13.80;99.90;;;15.15;100.00;100249.09;6293186;22;20212;-87
2021/08/03 23:50:47;;;;;;;11.25;8.63;;;13.80;99.90;;;15.16;100.00;100259.13;6280776;22;20020;-89
2021/08/03 23:53:13;;;;;;;10.75;8.38;;;13.80;99.90;;;15.12;100.00;100251.91;6278370;22;19999;-89
2021/08/03 23:55:39;;;;;;;9.85;7.97;;;13.80;99.90;;;15.10;100.00;100248.66;6279812;22;20014;-89
2021/08/03 23:58:06;;;;;;;8.90;7.57;;;13.70;99.90;;;15.10;100.00;100243.03;6280576;22;20010;-88
